sensor_id;sensor_type;location;lat;lon;timestamp;P1;durP1;ratioP1;P2;durP2;ratioP2
78987;SDS011;74752;44.786;37.680;2023-12-20T00:00:56;10.48;;;4.68;;
78987;SDS011;74752;44.786;37.680;2023-12-20T00:02:00;8.38;;;4.45;;
78987;SDS011;74752;44.786;37.680;2023-12-20T00:03:04;10.50;;;4.47;;
78987;SDS011;74752;44.786;37.680;2023-12-20T00:04:09;6.72;;;3.47;;
78987;SDS011;74752;44.786;37.680;2023-12-20T00:05:12;8.05;;;3.47;;
78987;SDS011;74752;44.786;37.680;2023-12-20T00:06:15;7.25;;;3.95;;
78987;SDS011;74752;44.786;37.680;2023-12-20T00:07:21;6.22;;;3.15;;
78987;SDS011;74752;44.786;37.680;2023-12-20T00:08:26;7.25;;;3.08;;
78987;SDS011;74752;44.786;37.680;2023-12-20T00:09:35;6.45;;;3.25;;
78987;SDS011;74752;44.786;37.680;2023-12-20T00:11:44;8.18;;;2.92;;
78987;SDS011;74752;44.786;37.680;2023-12-20T00:12:47;6.25;;;3.20;;
78987;SDS011;74752;44.786;37.680;2023-12-20T00:13:51;6.97;;;3.55;;
78987;SDS011;74752;44.786;37.680;2023-12-20T00:14:54;5.97;;;3.20;;
78987;SDS011;74752;44.786;37.680;2023-12-20T00:15:56;7.85;;;3.30;;
78987;SDS011;74752;44.786;37.680;2023-12-20T00:16:59;7.43;;;3.42;;
78987;SDS011;74752;44.786;37.680;2023-12-20T00:18:07;6.70;;;3.17;;
78987;SDS011;74752;44.786;37.680;2023-12-20T00:19:13;6.65;;;3.00;;
78987;SDS011;74752;44.786;37.680;2023-12-20T00:20:19;6.32;;;3.10;;
78987;SDS011;74752;44.786;37.680;2023-12-20T00:21:22;7.80;;;3.10;;
78987;SDS011;74752;44.786;37.680;2023-12-20T00:22:29;7.72;;;3.58;;
78987;SDS011;74752;44.786;37.680;2023-12-20T00:23:37;8.02;;;3.55;;
78987;SDS011;74752;44.786;37.680;2023-12-20T00:24:40;12.50;;;3.90;;
78987;SDS011;74752;44.786;37.680;2023-12-20T00:25:43;7.35;;;3.33;;
78987;SDS011;74752;44.786;37.680;2023-12-20T00:26:53;9.57;;;3.28;;
78987;SDS011;74752;44.786;37.680;2023-12-20T00:27:57;6.65;;;3.15;;
78987;SDS011;74752;44.786;37.680;2023-12-20T00:29:00;8.68;;;3.15;;
78987;SDS011;74752;44.786;37.680;2023-12-20T00:30:10;7.55;;;2.60;;
78987;SDS011;74752;44.786;37.680;2023-12-20T00:31:13;5.28;;;2.20;;
78987;SDS011;74752;44.786;37.680;2023-12-20T00:32:20;5.05;;;2.40;;
78987;SDS011;74752;44.786;37.680;2023-12-20T00:33:25;5.88;;;2.47;;
78987;SDS011;74752;44.786;37.680;2023-12-20T00:34:29;5.63;;;2.50;;
78987;SDS011;74752;44.786;37.680;2023-12-20T00:35:32;4.85;;;2.38;;
78987;SDS011;74752;44.786;37.680;2023-12-20T00:36:39;4.82;;;2.60;;
78987;SDS011;74752;44.786;37.680;2023-12-20T00:37:50;5.80;;;3.50;;
78987;SDS011;74752;44.786;37.680;2023-12-20T00:39:03;7.38;;;4.13;;
78987;SDS011;74752;44.786;37.680;2023-12-20T00:40:13;15.23;;;4.63;;
78987;SDS011;74752;44.786;37.680;2023-12-20T00:41:17;8.88;;;4.65;;
78987;SDS011;74752;44.786;37.680;2023-12-20T00:42:20;10.73;;;4.60;;
78987;SDS011;74752;44.786;37.680;2023-12-20T00:43:22;8.13;;;4.40;;
78987;SDS011;74752;44.786;37.680;2023-12-20T00:44:25;8.02;;;4.40;;
78987;SDS011;74752;44.786;37.680;2023-12-20T00:45:27;11.00;;;4.10;;
78987;SDS011;74752;44.786;37.680;2023-12-20T00:46:32;8.45;;;4.30;;
78987;SDS011;74752;44.786;37.680;2023-12-20T00:47:37;8.63;;;4.07;;
78987;SDS011;74752;44.786;37.680;2023-12-20T00:48:39;6.45;;;3.22;;
78987;SDS011;74752;44.786;37.680;2023-12-20T00:49:46;6.88;;;3.47;;
78987;SDS011;74752;44.786;37.680;2023-12-20T00:50:49;7.75;;;3.10;;
78987;SDS011;74752;44.786;37.680;2023-12-20T00:51:52;6.45;;;3.45;;
78987;SDS011;74752;44.786;37.680;2023-12-20T00:52:57;10.35;;;2.92;;
78987;SDS011;74752;44.786;37.680;2023-12-20T00:54:00;6.90;;;3.10;;
78987;SDS011;74752;44.786;37.680;2023-12-20T00:55:02;8.38;;;3.20;;
78987;SDS011;74752;44.786;37.680;2023-12-20T00:56:05;8.85;;;3.42;;
78987;SDS011;74752;44.786;37.680;2023-12-20T00:57:10;7.25;;;3.30;;
78987;SDS011;74752;44.786;37.680;2023-12-20T00:58:15;5.90;;;2.97;;
78987;SDS011;74752;44.786;37.680;2023-12-20T00:59:21;7.75;;;3.25;;
78987;SDS011;74752;44.786;37.680;2023-12-20T01:00:24;7.53;;;2.90;;
78987;SDS011;74752;44.786;37.680;2023-12-20T01:01:26;5.75;;;2.80;;
78987;SDS011;74752;44.786;37.680;2023-12-20T01:02:29;6.13;;;2.83;;
78987;SDS011;74752;44.786;37.680;2023-12-20T01:03:32;8.55;;;3.28;;
78987;SDS011;74752;44.786;37.680;2023-12-20T01:04:34;12.73;;;4.70;;
78987;SDS011;74752;44.786;37.680;2023-12-20T01:05:36;7.13;;;2.95;;
78987;SDS011;74752;44.786;37.680;2023-12-20T01:06:40;7.60;;;3.00;;
78987;SDS011;74752;44.786;37.680;2023-12-20T01:07:52;6.72;;;2.83;;
78987;SDS011;74752;44.786;37.680;2023-12-20T01:08:54;7.15;;;3.13;;
78987;SDS011;74752;44.786;37.680;2023-12-20T01:09:59;8.35;;;3.60;;
78987;SDS011;74752;44.786;37.680;2023-12-20T01:11:05;8.07;;;3.22;;
78987;SDS011;74752;44.786;37.680;2023-12-20T01:12:07;7.88;;;3.40;;
78987;SDS011;74752;44.786;37.680;2023-12-20T01:13:10;9.95;;;3.60;;
78987;SDS011;74752;44.786;37.680;2023-12-20T01:14:14;7.63;;;3.47;;
78987;SDS011;74752;44.786;37.680;2023-12-20T01:15:17;10.20;;;3.33;;
78987;SDS011;74752;44.786;37.680;2023-12-20T01:16:25;7.00;;;3.35;;
78987;SDS011;74752;44.786;37.680;2023-12-20T01:17:27;7.43;;;3.70;;
78987;SDS011;74752;44.786;37.680;2023-12-20T01:18:29;8.60;;;3.30;;
78987;SDS011;74752;44.786;37.680;2023-12-20T01:19:32;7.80;;;3.90;;
78987;SDS011;74752;44.786;37.680;2023-12-20T01:20:34;7.03;;;3.83;;
78987;SDS011;74752;44.786;37.680;2023-12-20T01:21:37;6.78;;;4.13;;
78987;SDS011;74752;44.786;37.680;2023-12-20T01:22:42;8.18;;;3.47;;
78987;SDS011;74752;44.786;37.680;2023-12-20T01:23:44;9.70;;;4.20;;
78987;SDS011;74752;44.786;37.680;2023-12-20T01:24:49;10.95;;;4.22;;
78987;SDS011;74752;44.786;37.680;2023-12-20T01:25:56;11.15;;;5.13;;
78987;SDS011;74752;44.786;37.680;2023-12-20T01:27:01;9.38;;;3.78;;
78987;SDS011;74752;44.786;37.680;2023-12-20T01:28:06;9.85;;;4.20;;
78987;SDS011;74752;44.786;37.680;2023-12-20T01:29:09;11.23;;;3.60;;
78987;SDS011;74752;44.786;37.680;2023-12-20T01:30:13;8.13;;;4.25;;
78987;SDS011;74752;44.786;37.680;2023-12-20T01:31:16;6.60;;;3.78;;
78987;SDS011;74752;44.786;37.680;2023-12-20T01:32:24;7.65;;;4.03;;
78987;SDS011;74752;44.786;37.680;2023-12-20T01:33:26;7.25;;;4.05;;
78987;SDS011;74752;44.786;37.680;2023-12-20T01:34:29;11.18;;;4.40;;
78987;SDS011;74752;44.786;37.680;2023-12-20T01:35:34;10.65;;;4.63;;
78987;SDS011;74752;44.786;37.680;2023-12-20T01:36:39;9.07;;;4.20;;
78987;SDS011;74752;44.786;37.680;2023-12-20T01:37:42;8.38;;;3.80;;
78987;SDS011;74752;44.786;37.680;2023-12-20T01:38:47;9.02;;;4.20;;
78987;SDS011;74752;44.786;37.680;2023-12-20T01:39:56;8.43;;;3.42;;
78987;SDS011;74752;44.786;37.680;2023-12-20T01:41:00;8.13;;;3.45;;
78987;SDS011;74752;44.786;37.680;2023-12-20T01:42:03;9.55;;;3.90;;
78987;SDS011;74752;44.786;37.680;2023-12-20T01:43:06;9.45;;;3.88;;
78987;SDS011;74752;44.786;37.680;2023-12-20T01:44:14;9.43;;;3.85;;
78987;SDS011;74752;44.786;37.680;2023-12-20T01:45:19;11.90;;;3.90;;
78987;SDS011;74752;44.786;37.680;2023-12-20T01:46:21;6.55;;;3.22;;
78987;SDS011;74752;44.786;37.680;2023-12-20T01:47:26;8.40;;;3.60;;
78987;SDS011;74752;44.786;37.680;2023-12-20T01:48:31;7.53;;;4.10;;
78987;SDS011;74752;44.786;37.680;2023-12-20T01:49:34;10.38;;;3.88;;
78987;SDS011;74752;44.786;37.680;2023-12-20T01:50:43;7.07;;;3.78;;
78987;SDS011;74752;44.786;37.680;2023-12-20T01:51:46;11.32;;;4.03;;
78987;SDS011;74752;44.786;37.680;2023-12-20T01:52:51;7.63;;;3.63;;
78987;SDS011;74752;44.786;37.680;2023-12-20T01:54:02;7.70;;;3.28;;
78987;SDS011;74752;44.786;37.680;2023-12-20T01:55:09;7.90;;;3.50;;
78987;SDS011;74752;44.786;37.680;2023-12-20T01:56:16;7.95;;;3.20;;
78987;SDS011;74752;44.786;37.680;2023-12-20T01:57:20;8.68;;;3.17;;
78987;SDS011;74752;44.786;37.680;2023-12-20T01:58:23;6.80;;;3.08;;
78987;SDS011;74752;44.786;37.680;2023-12-20T01:59:25;9.55;;;3.40;;
78987;SDS011;74752;44.786;37.680;2023-12-20T02:00:29;8.57;;;3.70;;
78987;SDS011;74752;44.786;37.680;2023-12-20T02:01:33;6.55;;;3.22;;
78987;SDS011;74752;44.786;37.680;2023-12-20T02:02:39;9.02;;;3.08;;
78987;SDS011;74752;44.786;37.680;2023-12-20T02:03:44;7.95;;;3.03;;
78987;SDS011;74752;44.786;37.680;2023-12-20T02:04:47;7.38;;;2.90;;
78987;SDS011;74752;44.786;37.680;2023-12-20T02:05:52;9.63;;;3.13;;
78987;SDS011;74752;44.786;37.680;2023-12-20T02:06:55;8.65;;;3.38;;
78987;SDS011;74752;44.786;37.680;2023-12-20T02:07:59;7.65;;;2.85;;
78987;SDS011;74752;44.786;37.680;2023-12-20T02:09:03;15.57;;;3.10;;
78987;SDS011;74752;44.786;37.680;2023-12-20T02:10:09;7.07;;;2.70;;
78987;SDS011;74752;44.786;37.680;2023-12-20T02:11:16;7.32;;;2.92;;
78987;SDS011;74752;44.786;37.680;2023-12-20T02:12:24;7.93;;;3.50;;
78987;SDS011;74752;44.786;37.680;2023-12-20T02:13:30;8.30;;;2.85;;
78987;SDS011;74752;44.786;37.680;2023-12-20T02:14:36;8.52;;;2.88;;
78987;SDS011;74752;44.786;37.680;2023-12-20T02:15:41;6.53;;;2.85;;
78987;SDS011;74752;44.786;37.680;2023-12-20T02:16:45;8.60;;;3.00;;
78987;SDS011;74752;44.786;37.680;2023-12-20T02:17:51;7.30;;;2.80;;
78987;SDS011;74752;44.786;37.680;2023-12-20T02:18:53;5.82;;;2.60;;
78987;SDS011;74752;44.786;37.680;2023-12-20T02:20:04;7.20;;;2.90;;
78987;SDS011;74752;44.786;37.680;2023-12-20T02:21:07;9.40;;;3.10;;
78987;SDS011;74752;44.786;37.680;2023-12-20T02:22:11;6.07;;;2.95;;
78987;SDS011;74752;44.786;37.680;2023-12-20T02:23:15;7.60;;;2.60;;
78987;SDS011;74752;44.786;37.680;2023-12-20T02:24:25;8.07;;;2.53;;
78987;SDS011;74752;44.786;37.680;2023-12-20T02:25:32;9.05;;;2.80;;
78987;SDS011;74752;44.786;37.680;2023-12-20T02:26:34;7.88;;;2.53;;
78987;SDS011;74752;44.786;37.680;2023-12-20T02:27:36;8.82;;;2.45;;
78987;SDS011;74752;44.786;37.680;2023-12-20T02:28:40;9.25;;;2.83;;
78987;SDS011;74752;44.786;37.680;2023-12-20T02:29:46;6.88;;;2.95;;
78987;SDS011;74752;44.786;37.680;2023-12-20T02:30:50;8.05;;;2.70;;
78987;SDS011;74752;44.786;37.680;2023-12-20T02:31:54;7.15;;;2.92;;
78987;SDS011;74752;44.786;37.680;2023-12-20T02:32:56;7.35;;;2.78;;
78987;SDS011;74752;44.786;37.680;2023-12-20T02:34:01;4.70;;;2.60;;
78987;SDS011;74752;44.786;37.680;2023-12-20T02:35:04;7.65;;;2.90;;
78987;SDS011;74752;44.786;37.680;2023-12-20T02:36:16;9.93;;;2.75;;
78987;SDS011;74752;44.786;37.680;2023-12-20T02:37:20;8.63;;;3.45;;
78987;SDS011;74752;44.786;37.680;2023-12-20T02:38:22;8.40;;;2.70;;
78987;SDS011;74752;44.786;37.680;2023-12-20T02:39:24;6.72;;;2.75;;
78987;SDS011;74752;44.786;37.680;2023-12-20T02:40:26;7.90;;;2.78;;
78987;SDS011;74752;44.786;37.680;2023-12-20T02:41:31;5.70;;;2.58;;
78987;SDS011;74752;44.786;37.680;2023-12-20T02:42:35;6.43;;;2.78;;
78987;SDS011;74752;44.786;37.680;2023-12-20T02:43:37;7.60;;;3.00;;
78987;SDS011;74752;44.786;37.680;2023-12-20T02:44:42;8.25;;;2.72;;
78987;SDS011;74752;44.786;37.680;2023-12-20T02:45:47;6.18;;;2.92;;
78987;SDS011;74752;44.786;37.680;2023-12-20T02:46:50;5.65;;;2.97;;
78987;SDS011;74752;44.786;37.680;2023-12-20T02:47:53;8.05;;;2.92;;
78987;SDS011;74752;44.786;37.680;2023-12-20T02:48:55;8.35;;;3.00;;
78987;SDS011;74752;44.786;37.680;2023-12-20T02:50:03;7.88;;;2.78;;
78987;SDS011;74752;44.786;37.680;2023-12-20T02:51:10;7.63;;;2.90;;
78987;SDS011;74752;44.786;37.680;2023-12-20T02:52:16;7.55;;;3.00;;
78987;SDS011;74752;44.786;37.680;2023-12-20T02:53:19;9.57;;;3.42;;
78987;SDS011;74752;44.786;37.680;2023-12-20T02:54:22;8.75;;;3.10;;
78987;SDS011;74752;44.786;37.680;2023-12-20T02:55:24;9.52;;;2.75;;
78987;SDS011;74752;44.786;37.680;2023-12-20T02:56:29;6.35;;;2.55;;
78987;SDS011;74752;44.786;37.680;2023-12-20T02:57:32;5.25;;;2.38;;
78987;SDS011;74752;44.786;37.680;2023-12-20T02:58:37;12.23;;;3.20;;
78987;SDS011;74752;44.786;37.680;2023-12-20T02:59:42;8.85;;;2.50;;
78987;SDS011;74752;44.786;37.680;2023-12-20T03:00:46;9.88;;;2.92;;
78987;SDS011;74752;44.786;37.680;2023-12-20T03:01:54;8.38;;;2.63;;
78987;SDS011;74752;44.786;37.680;2023-12-20T03:02:56;7.43;;;2.85;;
78987;SDS011;74752;44.786;37.680;2023-12-20T03:03:59;9.27;;;2.90;;
78987;SDS011;74752;44.786;37.680;2023-12-20T03:05:02;6.53;;;2.40;;
78987;SDS011;74752;44.786;37.680;2023-12-20T03:06:10;7.43;;;2.60;;
78987;SDS011;74752;44.786;37.680;2023-12-20T03:07:13;7.28;;;3.22;;
78987;SDS011;74752;44.786;37.680;2023-12-20T03:08:15;7.93;;;2.55;;
78987;SDS011;74752;44.786;37.680;2023-12-20T03:09:20;6.15;;;2.70;;
78987;SDS011;74752;44.786;37.680;2023-12-20T03:10:26;6.15;;;2.55;;
78987;SDS011;74752;44.786;37.680;2023-12-20T03:11:29;6.85;;;2.40;;
78987;SDS011;74752;44.786;37.680;2023-12-20T03:12:32;6.10;;;2.53;;
78987;SDS011;74752;44.786;37.680;2023-12-20T03:13:34;9.85;;;2.42;;
78987;SDS011;74752;44.786;37.680;2023-12-20T03:14:36;4.50;;;2.13;;
78987;SDS011;74752;44.786;37.680;2023-12-20T03:15:41;8.68;;;2.22;;
78987;SDS011;74752;44.786;37.680;2023-12-20T03:16:51;6.10;;;2.33;;
78987;SDS011;74752;44.786;37.680;2023-12-20T03:17:56;9.60;;;2.35;;
78987;SDS011;74752;44.786;37.680;2023-12-20T03:19:00;7.13;;;2.15;;
78987;SDS011;74752;44.786;37.680;2023-12-20T03:20:03;5.93;;;2.20;;
78987;SDS011;74752;44.786;37.680;2023-12-20T03:21:09;6.47;;;2.28;;
78987;SDS011;74752;44.786;37.680;2023-12-20T03:22:12;4.82;;;2.03;;
78987;SDS011;74752;44.786;37.680;2023-12-20T03:23:14;6.68;;;2.33;;
78987;SDS011;74752;44.786;37.680;2023-12-20T03:24:19;7.32;;;2.10;;
78987;SDS011;74752;44.786;37.680;2023-12-20T03:25:22;6.82;;;2.70;;
78987;SDS011;74752;44.786;37.680;2023-12-20T03:26:27;4.97;;;2.03;;
78987;SDS011;74752;44.786;37.680;2023-12-20T03:27:32;8.38;;;2.17;;
78987;SDS011;74752;44.786;37.680;2023-12-20T03:28:40;5.13;;;2.58;;
78987;SDS011;74752;44.786;37.680;2023-12-20T03:29:42;5.18;;;2.15;;
78987;SDS011;74752;44.786;37.680;2023-12-20T03:30:45;10.77;;;2.17;;
78987;SDS011;74752;44.786;37.680;2023-12-20T03:31:47;6.00;;;1.90;;
78987;SDS011;74752;44.786;37.680;2023-12-20T03:33:58;6.43;;;1.98;;
78987;SDS011;74752;44.786;37.680;2023-12-20T03:35:03;5.38;;;2.13;;
78987;SDS011;74752;44.786;37.680;2023-12-20T03:36:06;5.35;;;2.30;;
78987;SDS011;74752;44.786;37.680;2023-12-20T03:37:14;7.10;;;2.42;;
78987;SDS011;74752;44.786;37.680;2023-12-20T03:38:16;4.75;;;2.00;;
78987;SDS011;74752;44.786;37.680;2023-12-20T03:39:19;7.63;;;2.20;;
78987;SDS011;74752;44.786;37.680;2023-12-20T03:40:22;5.28;;;1.88;;
78987;SDS011;74752;44.786;37.680;2023-12-20T03:41:29;5.75;;;2.40;;
78987;SDS011;74752;44.786;37.680;2023-12-20T03:42:31;7.25;;;2.33;;
78987;SDS011;74752;44.786;37.680;2023-12-20T03:44:42;9.00;;;2.47;;
78987;SDS011;74752;44.786;37.680;2023-12-20T03:45:47;4.40;;;2.10;;
78987;SDS011;74752;44.786;37.680;2023-12-20T03:46:52;5.45;;;2.17;;
78987;SDS011;74752;44.786;37.680;2023-12-20T03:47:54;7.50;;;2.20;;
78987;SDS011;74752;44.786;37.680;2023-12-20T03:48:57;4.72;;;2.20;;
78987;SDS011;74752;44.786;37.680;2023-12-20T03:50:04;7.18;;;2.30;;
78987;SDS011;74752;44.786;37.680;2023-12-20T03:51:07;9.40;;;2.30;;
78987;SDS011;74752;44.786;37.680;2023-12-20T03:52:12;8.13;;;2.67;;
78987;SDS011;74752;44.786;37.680;2023-12-20T03:53:19;9.63;;;1.92;;
78987;SDS011;74752;44.786;37.680;2023-12-20T03:54:24;6.93;;;2.50;;
78987;SDS011;74752;44.786;37.680;2023-12-20T03:55:26;5.53;;;2.22;;
78987;SDS011;74752;44.786;37.680;2023-12-20T03:56:31;5.43;;;2.10;;
78987;SDS011;74752;44.786;37.680;2023-12-20T03:57:35;7.18;;;2.30;;
78987;SDS011;74752;44.786;37.680;2023-12-20T03:58:41;7.25;;;2.50;;
78987;SDS011;74752;44.786;37.680;2023-12-20T03:59:45;7.65;;;2.40;;
78987;SDS011;74752;44.786;37.680;2023-12-20T04:00:49;5.53;;;2.63;;
78987;SDS011;74752;44.786;37.680;2023-12-20T04:01:51;6.30;;;2.20;;
78987;SDS011;74752;44.786;37.680;2023-12-20T04:03:02;5.38;;;2.10;;
78987;SDS011;74752;44.786;37.680;2023-12-20T04:04:04;4.93;;;2.15;;
78987;SDS011;74752;44.786;37.680;2023-12-20T04:05:06;8.73;;;2.20;;
78987;SDS011;74752;44.786;37.680;2023-12-20T04:06:10;4.90;;;2.10;;
78987;SDS011;74752;44.786;37.680;2023-12-20T04:07:26;5.55;;;2.42;;
78987;SDS011;74752;44.786;37.680;2023-12-20T04:08:34;4.68;;;2.30;;
78987;SDS011;74752;44.786;37.680;2023-12-20T04:09:40;6.43;;;2.42;;
78987;SDS011;74752;44.786;37.680;2023-12-20T04:10:42;7.15;;;2.50;;
78987;SDS011;74752;44.786;37.680;2023-12-20T04:11:51;6.40;;;2.72;;
78987;SDS011;74752;44.786;37.680;2023-12-20T04:12:56;4.60;;;2.10;;
78987;SDS011;74752;44.786;37.680;2023-12-20T04:14:01;7.10;;;2.70;;
78987;SDS011;74752;44.786;37.680;2023-12-20T04:15:03;6.65;;;2.40;;
78987;SDS011;74752;44.786;37.680;2023-12-20T04:16:16;5.15;;;2.40;;
78987;SDS011;74752;44.786;37.680;2023-12-20T04:17:21;6.50;;;2.20;;
78987;SDS011;74752;44.786;37.680;2023-12-20T04:18:28;6.32;;;2.40;;
78987;SDS011;74752;44.786;37.680;2023-12-20T04:19:34;5.10;;;2.20;;
78987;SDS011;74752;44.786;37.680;2023-12-20T04:20:36;8.45;;;2.40;;
78987;SDS011;74752;44.786;37.680;2023-12-20T04:21:40;5.60;;;2.47;;
78987;SDS011;74752;44.786;37.680;2023-12-20T04:22:43;7.63;;;2.42;;
78987;SDS011;74752;44.786;37.680;2023-12-20T04:23:45;7.20;;;2.20;;
78987;SDS011;74752;44.786;37.680;2023-12-20T04:24:56;4.65;;;2.60;;
78987;SDS011;74752;44.786;37.680;2023-12-20T04:26:00;6.50;;;2.20;;
78987;SDS011;74752;44.786;37.680;2023-12-20T04:27:03;6.13;;;2.38;;
78987;SDS011;74752;44.786;37.680;2023-12-20T04:29:13;7.18;;;1.90;;
78987;SDS011;74752;44.786;37.680;2023-12-20T04:30:17;4.22;;;2.00;;
78987;SDS011;74752;44.786;37.680;2023-12-20T04:31:21;6.80;;;2.25;;
78987;SDS011;74752;44.786;37.680;2023-12-20T04:32:24;6.75;;;2.35;;
78987;SDS011;74752;44.786;37.680;2023-12-20T04:33:26;7.45;;;2.47;;
78987;SDS011;74752;44.786;37.680;2023-12-20T04:34:29;9.07;;;2.63;;
78987;SDS011;74752;44.786;37.680;2023-12-20T04:35:36;6.28;;;2.67;;
78987;SDS011;74752;44.786;37.680;2023-12-20T04:36:39;3.85;;;2.33;;
78987;SDS011;74752;44.786;37.680;2023-12-20T04:37:45;5.82;;;2.20;;
78987;SDS011;74752;44.786;37.680;2023-12-20T04:38:49;8.98;;;3.65;;
78987;SDS011;74752;44.786;37.680;2023-12-20T04:39:55;6.03;;;2.20;;
78987;SDS011;74752;44.786;37.680;2023-12-20T04:40:59;8.10;;;2.30;;
78987;SDS011;74752;44.786;37.680;2023-12-20T04:42:06;4.78;;;2.05;;
78987;SDS011;74752;44.786;37.680;2023-12-20T04:43:10;4.10;;;2.10;;
78987;SDS011;74752;44.786;37.680;2023-12-20T04:44:17;7.65;;;2.70;;
78987;SDS011;74752;44.786;37.680;2023-12-20T04:45:20;9.48;;;2.35;;
78987;SDS011;74752;44.786;37.680;2023-12-20T04:46:34;6.68;;;2.05;;
78987;SDS011;74752;44.786;37.680;2023-12-20T04:47:37;5.78;;;2.13;;
78987;SDS011;74752;44.786;37.680;2023-12-20T04:48:39;7.53;;;2.42;;
78987;SDS011;74752;44.786;37.680;2023-12-20T04:49:49;8.02;;;3.28;;
78987;SDS011;74752;44.786;37.680;2023-12-20T04:50:52;6.72;;;2.05;;
78987;SDS011;74752;44.786;37.680;2023-12-20T04:51:54;8.23;;;2.22;;
78987;SDS011;74752;44.786;37.680;2023-12-20T04:52:58;5.60;;;2.17;;
78987;SDS011;74752;44.786;37.680;2023-12-20T04:54:04;4.43;;;2.20;;
78987;SDS011;74752;44.786;37.680;2023-12-20T04:55:06;4.57;;;2.03;;
78987;SDS011;74752;44.786;37.680;2023-12-20T04:56:11;8.57;;;2.15;;
78987;SDS011;74752;44.786;37.680;2023-12-20T04:57:19;6.03;;;3.17;;
78987;SDS011;74752;44.786;37.680;2023-12-20T04:58:24;4.18;;;2.13;;
78987;SDS011;74752;44.786;37.680;2023-12-20T04:59:27;4.82;;;2.13;;
78987;SDS011;74752;44.786;37.680;2023-12-20T05:00:54;6.43;;;1.98;;
78987;SDS011;74752;44.786;37.680;2023-12-20T05:01:56;6.00;;;2.20;;
78987;SDS011;74752;44.786;37.680;2023-12-20T05:03:00;6.72;;;2.42;;
78987;SDS011;74752;44.786;37.680;2023-12-20T05:04:03;5.80;;;2.25;;
78987;SDS011;74752;44.786;37.680;2023-12-20T05:05:14;5.35;;;2.38;;
78987;SDS011;74752;44.786;37.680;2023-12-20T05:06:19;5.75;;;2.45;;
78987;SDS011;74752;44.786;37.680;2023-12-20T05:07:26;5.80;;;2.30;;
78987;SDS011;74752;44.786;37.680;2023-12-20T05:08:32;4.00;;;1.90;;
78987;SDS011;74752;44.786;37.680;2023-12-20T05:09:37;5.72;;;2.00;;
78987;SDS011;74752;44.786;37.680;2023-12-20T05:10:40;6.65;;;1.95;;
78987;SDS011;74752;44.786;37.680;2023-12-20T05:11:45;7.72;;;2.05;;
78987;SDS011;74752;44.786;37.680;2023-12-20T05:12:50;6.70;;;2.70;;
78987;SDS011;74752;44.786;37.680;2023-12-20T05:13:56;5.10;;;1.92;;
78987;SDS011;74752;44.786;37.680;2023-12-20T05:15:01;5.78;;;2.40;;
78987;SDS011;74752;44.786;37.680;2023-12-20T05:16:04;5.07;;;2.30;;
78987;SDS011;74752;44.786;37.680;2023-12-20T05:17:11;5.15;;;3.00;;
78987;SDS011;74752;44.786;37.680;2023-12-20T05:18:14;4.97;;;1.88;;
78987;SDS011;74752;44.786;37.680;2023-12-20T05:19:16;4.72;;;2.00;;
78987;SDS011;74752;44.786;37.680;2023-12-20T05:20:22;5.15;;;1.98;;
78987;SDS011;74752;44.786;37.680;2023-12-20T05:21:25;6.15;;;2.10;;
78987;SDS011;74752;44.786;37.680;2023-12-20T05:22:32;4.68;;;1.95;;
78987;SDS011;74752;44.786;37.680;2023-12-20T05:23:34;4.40;;;1.70;;
78987;SDS011;74752;44.786;37.680;2023-12-20T05:24:43;5.10;;;2.33;;
78987;SDS011;74752;44.786;37.680;2023-12-20T05:25:45;6.60;;;1.70;;
78987;SDS011;74752;44.786;37.680;2023-12-20T05:26:49;3.97;;;1.80;;
78987;SDS011;74752;44.786;37.680;2023-12-20T05:27:53;4.05;;;1.83;;
78987;SDS011;74752;44.786;37.680;2023-12-20T05:28:56;6.47;;;2.00;;
78987;SDS011;74752;44.786;37.680;2023-12-20T05:29:59;6.40;;;1.90;;
78987;SDS011;74752;44.786;37.680;2023-12-20T05:31:03;5.32;;;2.05;;
78987;SDS011;74752;44.786;37.680;2023-12-20T05:32:06;4.53;;;2.00;;
78987;SDS011;74752;44.786;37.680;2023-12-20T05:33:12;4.00;;;1.75;;
78987;SDS011;74752;44.786;37.680;2023-12-20T05:34:15;4.15;;;1.77;;
78987;SDS011;74752;44.786;37.680;2023-12-20T05:36:24;4.70;;;1.63;;
78987;SDS011;74752;44.786;37.680;2023-12-20T05:37:29;5.28;;;1.60;;
78987;SDS011;74752;44.786;37.680;2023-12-20T05:38:34;4.60;;;1.52;;
78987;SDS011;74752;44.786;37.680;2023-12-20T05:39:40;6.85;;;2.38;;
78987;SDS011;74752;44.786;37.680;2023-12-20T05:40:45;4.47;;;1.90;;
78987;SDS011;74752;44.786;37.680;2023-12-20T05:41:47;6.70;;;1.70;;
78987;SDS011;74752;44.786;37.680;2023-12-20T05:42:53;4.10;;;1.88;;
78987;SDS011;74752;44.786;37.680;2023-12-20T05:44:08;4.60;;;1.70;;
78987;SDS011;74752;44.786;37.680;2023-12-20T05:45:18;8.40;;;1.73;;
78987;SDS011;74752;44.786;37.680;2023-12-20T05:46:21;3.33;;;1.60;;
78987;SDS011;74752;44.786;37.680;2023-12-20T05:47:26;4.65;;;1.73;;
78987;SDS011;74752;44.786;37.680;2023-12-20T05:48:29;5.65;;;1.80;;
78987;SDS011;74752;44.786;37.680;2023-12-20T05:49:37;5.90;;;1.80;;
78987;SDS011;74752;44.786;37.680;2023-12-20T05:50:40;3.40;;;1.63;;
78987;SDS011;74752;44.786;37.680;2023-12-20T05:51:45;6.40;;;2.00;;
78987;SDS011;74752;44.786;37.680;2023-12-20T05:52:52;6.03;;;1.58;;
78987;SDS011;74752;44.786;37.680;2023-12-20T05:53:55;9.55;;;1.67;;
78987;SDS011;74752;44.786;37.680;2023-12-20T05:54:59;3.88;;;1.55;;
78987;SDS011;74752;44.786;37.680;2023-12-20T05:56:05;5.20;;;1.65;;
78987;SDS011;74752;44.786;37.680;2023-12-20T05:57:17;5.50;;;1.52;;
78987;SDS011;74752;44.786;37.680;2023-12-20T05:58:22;4.68;;;1.60;;
78987;SDS011;74752;44.786;37.680;2023-12-20T05:59:27;4.22;;;1.33;;
78987;SDS011;74752;44.786;37.680;2023-12-20T06:00:30;5.95;;;1.98;;
78987;SDS011;74752;44.786;37.680;2023-12-20T06:01:38;9.48;;;1.60;;
78987;SDS011;74752;44.786;37.680;2023-12-20T06:02:47;3.22;;;1.27;;
78987;SDS011;74752;44.786;37.680;2023-12-20T06:03:52;4.22;;;1.52;;
78987;SDS011;74752;44.786;37.680;2023-12-20T06:05:05;2.03;;;1.23;;
78987;SDS011;74752;44.786;37.680;2023-12-20T06:06:10;5.70;;;1.50;;
78987;SDS011;74752;44.786;37.680;2023-12-20T06:07:16;5.05;;;1.58;;
78987;SDS011;74752;44.786;37.680;2023-12-20T06:08:22;3.95;;;1.33;;
78987;SDS011;74752;44.786;37.680;2023-12-20T06:09:26;4.28;;;1.58;;
78987;SDS011;74752;44.786;37.680;2023-12-20T06:10:37;2.38;;;1.27;;
78987;SDS011;74752;44.786;37.680;2023-12-20T06:11:40;4.55;;;1.50;;
78987;SDS011;74752;44.786;37.680;2023-12-20T06:12:44;2.33;;;1.20;;
78987;SDS011;74752;44.786;37.680;2023-12-20T06:13:49;3.72;;;1.27;;
78987;SDS011;74752;44.786;37.680;2023-12-20T06:15:00;3.70;;;1.50;;
78987;SDS011;74752;44.786;37.680;2023-12-20T06:16:07;4.28;;;1.77;;
78987;SDS011;74752;44.786;37.680;2023-12-20T06:17:12;4.03;;;1.30;;
78987;SDS011;74752;44.786;37.680;2023-12-20T06:18:25;4.63;;;1.73;;
78987;SDS011;74752;44.786;37.680;2023-12-20T06:19:30;3.17;;;1.10;;
78987;SDS011;74752;44.786;37.680;2023-12-20T06:20:33;2.50;;;1.23;;
78987;SDS011;74752;44.786;37.680;2023-12-20T06:21:35;3.97;;;1.50;;
78987;SDS011;74752;44.786;37.680;2023-12-20T06:22:44;2.83;;;1.17;;
78987;SDS011;74752;44.786;37.680;2023-12-20T06:23:46;4.45;;;1.20;;
78987;SDS011;74752;44.786;37.680;2023-12-20T06:24:50;3.72;;;1.45;;
78987;SDS011;74752;44.786;37.680;2023-12-20T06:25:53;5.45;;;1.60;;
78987;SDS011;74752;44.786;37.680;2023-12-20T06:26:59;3.88;;;1.50;;
78987;SDS011;74752;44.786;37.680;2023-12-20T06:28:06;5.07;;;1.40;;
78987;SDS011;74752;44.786;37.680;2023-12-20T06:29:14;5.53;;;1.70;;
78987;SDS011;74752;44.786;37.680;2023-12-20T06:30:17;3.13;;;1.50;;